Close

Questo sito utlizza cookie. Può leggere come li usiamo nella nostra Privacy Policy.

Ronchi Tower
Ronchi Tower

From Facebook

METAR & TAF

2019/12/05 22:50 LIPQ 052250Z 33004KT 9999 BKN060 03/02 Q1026
2019/12/05 18:22 TAF LIPQ 051700Z 0518/0618 VRB04KT CAVOK
2019/12/05 22:50 LIPZ 052250Z 35002KT 9999 BKN043 05/M01 Q1026 NOSIG
2019/12/05 18:22 TAF LIPZ 051700Z 0518/0624 03006KT 9999 FEW040
2019/12/05 22:50 LIPH 052250Z AUTO 24002KT 9999 BKN042/// 02/00 Q1026
2019/12/05 18:21 TAF LIPH 051700Z 0518/0618 VRB04KT 9999 FEW040
2019/12/05 22:50 LIRF 052250Z 08004KT 9999 SCT035 09/04 Q1024 NOSIG
2019/12/05 18:22 TAF LIRF 051700Z 0518/0624 07008KT 9999 SCT040 TEMPO 0518/0524 RA TEMPO 0600/0612 4000 SHRA BECMG 0610/0612 16012KT TEMPO 0615/0624 4000 SHRA
2019/12/05 22:50 LIML 052250Z 00000KT 6000 R36/1200N MIFG NSC 01/01 Q1027 NOSIG
2019/12/05 18:21 TAF LIML 051700Z 0518/0618 VRB05KT 7000 NSC TEMPO 0602/0608 0900 BCFG
2019/12/05 22:50 EDDM 052250Z 16005KT 0300 R26R/0800N R26L/0900U FZFG VV/// M03/M03 Q1022 NOSIG
2019/12/05 18:27 TAF EDDM 051700Z 0518/0624 VRB02KT 1200 BCFG OVC002 BECMG 0518/0520 0700 FZFG VV001 TEMPO 0520/0608 0300 BECMG 0609/0612 7000 NSW SCT002 BECMG 0618/0620 24006KT
2019/12/05 22:50 EGSS 052250Z AUTO 23018KT 9999 OVC013 09/07 Q1011
2019/12/05 21:20 TAF AMD EGSS 052113Z 0521/0624 22014KT 9999 FEW010 SCT014 BECMG 0521/0524 BKN007 TEMPO 0521/0621 23018G28KT TEMPO 0521/0613 6000 RA BKN004 PROB30 TEMPO 0521/0613 3000 RADZ PROB30 TEMPO 0611/0613 BKN001 BECMG 0613/0615 SCT008 TEMPO 0613/0620 7000 SHRA PROB30 TEMPO 0615/0619 4000 +SHRA BKN014
2019/12/05 22:50 EDDF 052250Z 20006KT 0900 R25R/1900N R25C/1000U R25L/1200D R18/1600U FZFG OVC001 M02/M02 Q1022 NOSIG
2019/12/05 18:27 TAF TAF EDDF 051700Z 0518/0624 20004KT 0250 FZFG VV001 PROB30 TEMPO 0518/0603 0700 FZFG OVC004 BECMG 0603/0606 20010KT 3000 BR BKN008 TEMPO 0606/0610 BKN012 PROB30 TEMPO 0609/0624 20015G25KT BECMG 0610/0613 6000 BKN012 PROB30 TEMPO 0616/0624 3000 RA BKN006

FlightRadar24

Radar Meteo

Traffic data

Agosto 2018

Passeggeri: 63892-12,9% (rank: 23)
Nazionali 34490 -19,8%
Internazionali 29193 -3,0%

Movimenti: 1307+11,7% (rank: 24)
Tot commerciale 556 -7,2%
Aviazione generale 751 +31,5%

Cargo (tons): 20,6+62,5% (rank: 21)

Gennaio - Agosto 2018

Passeggeri: 507438-3,5% (rank: 23)
Nazionali 322655 -4,9%
Internazionali 182927 -0,7%

Movimenti: 10366-4,25 (rank: 22)
Tot commerciale 5328 -11,0%
Aviazione generale 5038 +4,2%

Cargo (tons): 299,2+61,9% (rank: 20)

Photo

Antonov An-124-100 Ruslan
Antonov An-124-100 Ruslan
Distinct views: 11
Dornier 228
Dornier 228
Distinct views: 140
Douglas DC-6B
Douglas DC-6B
Distinct views: 172
ENAV training center Roma
ENAV training center Roma
Total views: 2701